createdAt,value
2017-04-22T00:00:23.790Z,0
2017-04-22T00:01:33.999Z,0
2017-04-22T00:02:44.218Z,0
2017-04-22T00:03:54.437Z,0
2017-04-22T00:05:04.655Z,0
2017-04-22T00:06:14.620Z,0
2017-04-22T00:07:24.556Z,0
2017-04-22T00:08:34.792Z,0
2017-04-22T00:09:44.731Z,0
2017-04-22T00:10:54.330Z,0
2017-04-22T00:12:04.345Z,0
2017-04-22T00:13:14.254Z,0
2017-04-22T00:14:24.483Z,0
2017-04-22T00:15:34.398Z,0
2017-04-22T00:16:43.693Z,0
2017-04-22T00:17:53.090Z,0
2017-04-22T00:19:02.988Z,0
2017-04-22T00:20:12.588Z,0
2017-04-22T00:21:22.194Z,0
2017-04-22T00:22:32.119Z,0
2017-04-22T00:23:42.581Z,0
2017-04-22T00:24:51.890Z,0
2017-04-22T00:26:01.826Z,0
2017-04-22T00:27:12.042Z,0
2017-04-22T00:28:21.946Z,0
2017-04-22T00:29:31.894Z,0
2017-04-22T00:30:41.837Z,0
2017-04-22T00:31:51.751Z,0
2017-04-22T00:33:01.965Z,0
2017-04-22T00:34:12.185Z,0
2017-04-22T00:35:21.976Z,0
2017-04-22T00:36:31.878Z,0
2017-04-22T00:37:41.823Z,0
2017-04-22T00:38:52.068Z,0
2017-04-22T00:40:02.274Z,0
2017-04-22T00:41:12.493Z,0
2017-04-22T00:42:22.093Z,0
2017-04-22T00:43:32.441Z,0
2017-04-22T00:44:42.179Z,0
2017-04-22T00:45:52.715Z,0
2017-04-22T00:47:02.769Z,0
2017-04-22T00:48:12.974Z,0
2017-04-22T00:49:22.278Z,0
2017-04-22T00:50:32.401Z,0
2017-04-22T00:51:42.319Z,0
2017-04-22T00:52:52.071Z,0
2017-04-22T00:54:01.977Z,0
2017-04-22T00:55:11.895Z,0
2017-04-22T00:56:22.102Z,0
2017-04-22T00:57:32.018Z,0
2017-04-22T00:58:42.386Z,0
2017-04-22T00:59:52.597Z,0
2017-04-22T01:01:02.502Z,0
2017-04-22T01:02:12.117Z,0
2017-04-22T01:03:22.033Z,0
2017-04-22T01:04:32.392Z,0
2017-04-22T01:05:42.604Z,0
2017-04-22T01:06:52.826Z,0
2017-04-22T01:08:03.068Z,0
2017-04-22T01:09:13.287Z,0
2017-04-22T01:10:22.923Z,0
2017-04-22T01:11:32.555Z,0
2017-04-22T01:12:42.768Z,0
2017-04-22T01:13:53.017Z,0
2017-04-22T01:15:03.248Z,0
2017-04-22T01:16:13.264Z,0
2017-04-22T01:17:22.892Z,0
2017-04-22T01:18:32.521Z,0
2017-04-22T01:19:42.185Z,0
2017-04-22T01:20:52.115Z,0
2017-04-22T01:22:02.268Z,0
2017-04-22T01:23:12.490Z,0
2017-04-22T01:24:22.717Z,0
2017-04-22T01:25:32.334Z,0
2017-04-22T01:26:42.805Z,0
2017-04-22T01:27:53.194Z,0
2017-04-22T01:29:03.428Z,0
2017-04-22T01:30:13.645Z,0
2017-04-22T01:31:23.544Z,0
2017-04-22T01:32:33.159Z,0
2017-04-22T01:33:43.650Z,0
2017-04-22T01:34:53.249Z,0
2017-04-22T01:36:03.467Z,0
2017-04-22T01:37:13.709Z,0
2017-04-22T01:38:23.004Z,0
2017-04-22T01:39:33.329Z,0
2017-04-22T01:40:43.235Z,0
2017-04-22T01:41:52.839Z,0
2017-04-22T01:43:02.768Z,0
2017-04-22T01:44:12.672Z,0
2017-04-22T01:45:22.543Z,0
2017-04-22T01:46:32.440Z,0
2017-04-22T01:47:42.033Z,0
2017-04-22T01:48:51.941Z,0
2017-04-22T01:50:01.850Z,0
2017-04-22T01:51:12.209Z,0
2017-04-22T01:52:21.501Z,0
2017-04-22T01:53:31.419Z,0
2017-04-22T01:54:41.333Z,0
2017-04-22T01:55:51.233Z,0
2017-04-22T01:57:01.691Z,0
2017-04-22T01:58:11.612Z,0
2017-04-22T01:59:21.530Z,0
2017-04-22T02:00:31.753Z,0
2017-04-22T02:01:41.672Z,0
2017-04-22T02:02:51.856Z,0
2017-04-22T02:04:01.779Z,0
2017-04-22T02:05:11.379Z,0
2017-04-22T02:06:20.977Z,0
2017-04-22T02:07:30.599Z,0
2017-04-22T02:08:40.602Z,0
2017-04-22T02:09:50.510Z,0
2017-04-22T02:11:00.748Z,0
2017-04-22T02:12:10.353Z,0
2017-04-22T02:13:20.651Z,0
2017-04-22T02:14:30.857Z,0
2017-04-22T02:15:41.063Z,0
2017-04-22T02:16:51.297Z,0
2017-04-22T02:18:01.210Z,0
2017-04-22T02:19:11.798Z,0
2017-04-22T02:20:21.640Z,0
2017-04-22T02:21:31.236Z,0
2017-04-22T02:22:40.834Z,0
2017-04-22T02:23:50.740Z,0
2017-04-22T02:25:00.358Z,0
2017-04-22T02:26:09.923Z,0
2017-04-22T02:27:19.826Z,0
2017-04-22T02:28:29.426Z,0
2017-04-22T02:29:39.020Z,0
2017-04-22T02:30:49.230Z,0
2017-04-22T02:31:58.990Z,0
2017-04-22T02:33:09.208Z,0
2017-04-22T02:34:18.807Z,0
2017-04-22T02:35:28.418Z,0
2017-04-22T02:36:38.326Z,0
2017-04-22T02:37:48.183Z,0
2017-04-22T02:38:57.483Z,0
2017-04-22T02:40:07.393Z,0
2017-04-22T02:41:17.306Z,0
2017-04-22T02:42:27.887Z,0
2017-04-22T02:43:38.146Z,0
2017-04-22T02:44:48.063Z,0
2017-04-22T02:45:58.283Z,0
2017-04-22T02:47:08.520Z,0
2017-04-22T02:48:17.835Z,0
2017-04-22T02:49:27.737Z,0
2017-04-22T02:50:37.350Z,0
2017-04-22T02:51:46.640Z,0
2017-04-22T02:52:56.550Z,0
2017-04-22T02:54:06.713Z,0
2017-04-22T02:55:16.764Z,0
2017-04-22T02:56:26.370Z,0
2017-04-22T02:57:36.273Z,0
2017-04-22T02:58:46.184Z,0
2017-04-22T02:59:56.415Z,0
2017-04-22T03:01:06.159Z,0
2017-04-22T03:02:16.064Z,0
2017-04-22T03:03:26.278Z,0
2017-04-22T03:04:35.875Z,0
2017-04-22T03:05:45.794Z,0
2017-04-22T03:06:56.152Z,0
2017-04-22T03:08:06.057Z,0
2017-04-22T03:09:16.268Z,0
2017-04-22T03:10:26.184Z,0
2017-04-22T03:11:36.087Z,0
2017-04-22T03:12:46.345Z,0
2017-04-22T03:13:55.956Z,0
2017-04-22T03:15:05.566Z,0
2017-04-22T03:16:15.475Z,0
2017-04-22T03:17:25.079Z,0
2017-04-22T03:18:35.142Z,0
2017-04-22T03:19:44.747Z,0
2017-04-22T03:20:55.024Z,0
2017-04-22T03:22:04.932Z,0
2017-04-22T03:23:14.224Z,0
2017-04-22T03:24:24.079Z,0
2017-04-22T03:25:33.993Z,0
2017-04-22T03:26:43.607Z,0
2017-04-22T03:27:53.817Z,0
2017-04-22T03:29:03.734Z,0
2017-04-22T03:30:13.327Z,0
2017-04-22T03:31:23.532Z,0
2017-04-22T03:32:33.134Z,0
2017-04-22T03:33:43.044Z,0
2017-04-22T03:34:52.950Z,0
2017-04-22T03:36:03.233Z,0
2017-04-22T03:37:13.182Z,0
2017-04-22T03:38:23.088Z,0
2017-04-22T03:39:33.051Z,0
2017-04-22T03:40:42.350Z,0
2017-04-22T03:41:52.213Z,0
2017-04-22T03:43:02.424Z,0
2017-04-22T03:44:12.636Z,0
2017-04-22T03:45:22.909Z,0
2017-04-22T03:46:32.684Z,0
2017-04-22T03:47:42.627Z,0
2017-04-22T03:48:52.536Z,0
2017-04-22T03:50:01.830Z,0
2017-04-22T03:51:11.445Z,0
2017-04-22T03:52:21.656Z,0
2017-04-22T03:53:31.248Z,0
2017-04-22T03:54:41.158Z,0
2017-04-22T03:55:51.057Z,0
2017-04-22T03:57:00.966Z,0
2017-04-22T03:58:10.895Z,0
2017-04-22T03:59:21.323Z,0
2017-04-22T04:00:30.936Z,0
2017-04-22T04:01:41.161Z,0
2017-04-22T04:02:51.084Z,0
2017-04-22T04:04:00.994Z,0
2017-04-22T04:05:11.555Z,0
2017-04-22T04:06:21.765Z,0
2017-04-22T04:07:31.975Z,0
2017-04-22T04:08:42.227Z,0
2017-04-22T04:09:52.432Z,0
2017-04-22T04:11:02.696Z,0
2017-04-22T04:12:12.739Z,0
2017-04-22T04:13:22.956Z,0
2017-04-22T04:14:33.220Z,0
2017-04-22T04:15:43.124Z,0
2017-04-22T04:16:53.592Z,0
2017-04-22T04:18:03.182Z,0
2017-04-22T04:19:13.395Z,4
2017-04-22T04:20:23.607Z,4
2017-04-22T04:21:33.515Z,4
2017-04-22T04:22:43.660Z,4
2017-04-22T04:23:53.269Z,4
2017-04-22T04:25:03.487Z,4
2017-04-22T04:26:13.702Z,4
2017-04-22T04:27:23.313Z,4
2017-04-22T04:28:33.478Z,4
2017-04-22T04:29:43.701Z,4
2017-04-22T04:30:53.345Z,4
2017-04-22T04:32:03.565Z,4
2017-04-22T04:33:13.783Z,8
2017-04-22T04:34:23.900Z,8
2017-04-22T04:35:33.804Z,12
2017-04-22T04:36:43.416Z,12
2017-04-22T04:37:53.639Z,12
2017-04-22T04:39:03.848Z,16
2017-04-22T04:40:13.906Z,16
2017-04-22T04:41:23.529Z,16
2017-04-22T04:42:33.448Z,20
2017-04-22T04:43:42.736Z,20
2017-04-22T04:44:52.332Z,20
2017-04-22T04:46:02.840Z,20
2017-04-22T04:47:13.047Z,20
2017-04-22T04:48:23.255Z,20
2017-04-22T04:49:32.873Z,24
2017-04-22T04:50:42.782Z,28
2017-04-22T04:51:52.536Z,32
2017-04-22T04:53:02.745Z,32
2017-04-22T04:54:12.678Z,32
2017-04-22T04:55:22.577Z,36
2017-04-22T04:56:32.482Z,36
2017-04-22T04:57:41.962Z,40
2017-04-22T04:58:51.867Z,44
2017-04-22T05:00:01.767Z,48
2017-04-22T05:01:11.437Z,64
2017-04-22T05:02:21.643Z,64
2017-04-22T05:03:31.944Z,80
2017-04-22T05:04:42.152Z,80
2017-04-22T05:05:51.743Z,80
2017-04-22T05:07:01.948Z,80
2017-04-22T05:08:12.175Z,76
2017-04-22T05:09:21.935Z,80
2017-04-22T05:10:31.530Z,88
2017-04-22T05:11:41.740Z,96
2017-04-22T05:12:51.961Z,100
2017-04-22T05:14:01.557Z,108
2017-04-22T05:15:11.405Z,120
2017-04-22T05:16:21.307Z,116
2017-04-22T05:17:30.899Z,112
2017-04-22T05:18:40.804Z,116
2017-04-22T05:19:50.739Z,120
2017-04-22T05:21:00.341Z,112
2017-04-22T05:22:09.943Z,120
2017-04-22T05:23:19.852Z,128
2017-04-22T05:24:29.752Z,124
2017-04-22T05:25:39.660Z,148
2017-04-22T05:26:49.416Z,152
2017-04-22T05:27:59.035Z,168
2017-04-22T05:29:09.252Z,176
2017-04-22T05:30:19.460Z,172
2017-04-22T05:34:01.878Z,208
2017-04-22T05:35:12.117Z,232
2017-04-22T05:36:22.321Z,240
2017-04-22T05:37:31.917Z,236
2017-04-22T05:38:41.529Z,240
2017-04-22T05:39:51.920Z,276
2017-04-22T05:41:02.135Z,300
2017-04-22T05:42:11.124Z,304
2017-04-22T05:43:21.040Z,304
2017-04-22T05:44:30.944Z,312
2017-04-22T05:45:40.344Z,332
2017-04-22T05:46:50.550Z,340
2017-04-22T05:48:00.778Z,304
2017-04-22T05:49:10.697Z,312
2017-04-22T05:50:20.606Z,328
2017-04-22T05:51:31.168Z,316
2017-04-22T05:52:41.372Z,308
2017-04-22T05:53:50.970Z,288
2017-04-22T05:55:01.191Z,292
2017-04-22T05:56:11.276Z,316
2017-04-22T05:57:21.030Z,356
2017-04-22T05:58:30.938Z,376
2017-04-22T05:59:40.541Z,392
2017-04-22T06:00:50.140Z,432
2017-04-22T06:02:00.039Z,484
2017-04-22T06:03:10.435Z,500
2017-04-22T06:04:20.055Z,484
2017-04-22T06:05:30.270Z,444
2017-04-22T06:06:40.177Z,404
2017-04-22T06:07:49.771Z,384
2017-04-22T06:09:00.083Z,356
2017-04-22T06:10:09.714Z,340
2017-04-22T06:11:20.097Z,344
2017-04-22T06:12:30.004Z,332
2017-04-22T06:13:39.610Z,328
2017-04-22T06:14:49.818Z,356
2017-04-22T06:15:59.416Z,388
2017-04-22T06:17:09.320Z,412
2017-04-22T06:18:19.232Z,436
2017-04-22T06:19:29.454Z,432
2017-04-22T06:20:38.896Z,452
2017-04-22T06:21:49.123Z,468
2017-04-22T06:22:59.447Z,476
2017-04-22T06:24:09.740Z,464
2017-04-22T06:25:19.670Z,476
2017-04-22T06:26:29.946Z,500
2017-04-22T06:27:39.562Z,516
2017-04-22T06:28:49.156Z,544
2017-04-22T06:29:59.287Z,532
2017-04-22T06:31:09.209Z,544
2017-04-22T06:32:19.616Z,468
2017-04-22T06:33:29.264Z,508
2017-04-22T06:34:39.194Z,600
2017-04-22T06:35:48.805Z,596
2017-04-22T06:36:58.551Z,580
2017-04-22T06:38:08.519Z,528
2017-04-22T06:39:18.745Z,568
2017-04-22T06:40:28.063Z,632
2017-04-22T06:41:38.447Z,708
2017-04-22T06:42:48.135Z,652
2017-04-22T06:43:57.600Z,544
2017-04-22T06:45:07.537Z,604
2017-04-22T06:46:17.143Z,612
2017-04-22T06:47:27.149Z,616
2017-04-22T06:48:37.174Z,704
2017-04-22T06:49:47.431Z,772
2017-04-22T06:50:57.679Z,748
2017-04-22T06:52:07.948Z,688
2017-04-22T06:53:17.573Z,688
2017-04-22T06:54:27.489Z,712
2017-04-22T06:55:37.109Z,712
2017-04-22T06:56:47.688Z,688
2017-04-22T06:57:57.770Z,692
2017-04-22T06:59:07.554Z,688
2017-04-22T07:00:16.846Z,696
2017-04-22T07:01:27.103Z,720
2017-04-22T07:02:36.725Z,740
2017-04-22T07:03:46.941Z,720
2017-04-22T07:04:57.158Z,716
2017-04-22T07:06:07.072Z,720
2017-04-22T07:07:17.406Z,728
2017-04-22T07:08:27.619Z,760
2017-04-22T07:09:37.838Z,764
2017-04-22T07:10:47.448Z,724
2017-04-22T07:11:57.359Z,684
2017-04-22T07:13:06.960Z,764
2017-04-22T07:14:16.902Z,896
2017-04-22T07:15:27.156Z,948
2017-04-22T07:16:36.480Z,952
2017-04-22T07:17:46.509Z,916
2017-04-22T07:18:57.003Z,908
2017-04-22T07:20:07.224Z,876
2017-04-22T07:21:16.692Z,880
2017-04-22T07:22:26.105Z,928
2017-04-22T07:23:36.670Z,996
2017-04-22T07:24:47.062Z,1140
2017-04-22T07:25:57.876Z,1184
2017-04-22T07:27:07.698Z,1244
2017-04-22T07:28:17.016Z,1324
2017-04-22T07:29:26.947Z,1432
2017-04-22T07:30:37.934Z,1600
2017-04-22T07:31:47.966Z,1788
2017-04-22T07:32:57.976Z,1984
2017-04-22T07:34:08.615Z,2148
2017-04-22T07:35:18.722Z,2260
2017-04-22T07:36:29.313Z,2276
2017-04-22T07:37:39.085Z,2372
2017-04-22T07:38:49.060Z,3184
2017-04-22T07:39:58.770Z,3584
2017-04-22T07:41:08.098Z,3416
2017-04-22T07:42:18.165Z,2084
2017-04-22T07:43:28.090Z,1996
2017-04-22T07:44:37.997Z,1964
2017-04-22T07:45:47.909Z,2024
2017-04-22T07:46:57.861Z,2084
2017-04-22T07:48:08.362Z,2220
2017-04-22T07:49:18.405Z,2540
2017-04-22T07:50:28.534Z,2356
2017-04-22T07:51:38.930Z,2236
2017-04-22T07:52:49.174Z,2008
2017-04-22T07:53:59.086Z,2716
2017-04-22T07:55:09.253Z,3568
2017-04-22T07:56:19.360Z,3356
2017-04-22T07:57:29.353Z,3092
2017-04-22T07:58:39.733Z,3528
2017-04-22T07:59:49.593Z,3860
2017-04-22T08:00:59.193Z,3952
2017-04-22T08:02:08.639Z,4728
2017-04-22T08:03:18.422Z,4752
2017-04-22T08:04:28.223Z,4660
2017-04-22T08:05:38.463Z,5344
2017-04-22T08:06:48.206Z,6808
2017-04-22T08:07:59.359Z,6016
2017-04-22T08:09:09.589Z,4776
2017-04-22T08:10:19.519Z,4808
2017-04-22T08:11:29.705Z,3988
2017-04-22T08:12:40.213Z,3740
2017-04-22T08:13:50.149Z,3496
2017-04-22T08:14:59.314Z,3332
2017-04-22T08:16:09.227Z,3196
2017-04-22T08:17:19.176Z,3120
2017-04-22T08:18:28.807Z,3616
2017-04-22T08:19:38.717Z,3340
2017-04-22T08:20:48.925Z,3020
2017-04-22T08:21:59.133Z,3576
2017-04-22T08:23:09.194Z,4484
2017-04-22T08:24:19.113Z,4472
2017-04-22T08:25:28.726Z,3520
2017-04-22T08:26:38.631Z,3004
2017-04-22T08:27:48.543Z,3612
2017-04-22T08:28:58.235Z,4036
2017-04-22T08:30:08.143Z,3472
2017-04-22T08:31:18.059Z,3720
2017-04-22T08:32:28.284Z,2516
2017-04-22T08:33:38.526Z,2888
2017-04-22T08:34:49.118Z,2512
2017-04-22T08:35:59.342Z,2468
2017-04-22T08:37:08.633Z,2336
2017-04-22T08:38:18.239Z,2208
2017-04-22T08:39:28.147Z,2052
2017-04-22T08:40:37.904Z,2252
2017-04-22T08:41:47.521Z,2080
2017-04-22T08:42:57.730Z,2156
2017-04-22T08:44:07.954Z,2208
2017-04-22T08:45:18.187Z,2144
2017-04-22T08:46:28.399Z,2624
2017-04-22T08:47:38.642Z,2932
2017-04-22T08:48:48.868Z,1452
2017-04-22T08:49:58.791Z,1220
2017-04-22T08:51:08.418Z,1276
2017-04-22T08:52:18.276Z,1320
2017-04-22T08:53:27.887Z,1612
2017-04-22T08:54:38.104Z,1924
2017-04-22T08:55:47.705Z,1700
2017-04-22T08:56:57.628Z,1696
2017-04-22T08:58:07.994Z,1704
2017-04-22T08:59:17.912Z,1584
2017-04-22T09:00:27.584Z,1180
2017-04-22T09:01:38.174Z,932
2017-04-22T09:02:48.086Z,840
2017-04-22T09:03:58.464Z,852
2017-04-22T09:05:08.682Z,904
2017-04-22T09:06:18.596Z,780
2017-04-22T09:07:28.596Z,860
2017-04-22T09:08:39.508Z,768
2017-04-22T09:09:50.490Z,720
2017-04-22T09:11:00.628Z,688
2017-04-22T09:12:09.931Z,696
2017-04-22T09:13:19.554Z,688
2017-04-22T09:14:29.772Z,736
2017-04-22T09:15:39.628Z,776
2017-04-22T09:16:49.544Z,728
2017-04-22T09:18:00.141Z,840
2017-04-22T09:19:10.044Z,972
2017-04-22T09:20:19.949Z,1052
2017-04-22T09:21:29.711Z,1092
2017-04-22T09:22:39.630Z,1112
2017-04-22T09:23:49.538Z,1168
2017-04-22T09:24:59.457Z,1532
2017-04-22T09:26:09.363Z,1936
2017-04-22T09:27:19.430Z,2408
2017-04-22T09:28:29.351Z,2996
2017-04-22T09:29:39.572Z,3316
2017-04-22T09:30:49.854Z,2812
2017-04-22T09:31:59.196Z,2708
2017-04-22T09:33:09.393Z,2708
2017-04-22T09:34:19.368Z,2580
2017-04-22T09:35:29.585Z,2324
2017-04-22T09:36:39.193Z,2180
2017-04-22T09:37:49.114Z,1852
2017-04-22T09:38:59.486Z,1688
2017-04-22T09:40:08.772Z,1432
2017-04-22T09:41:18.065Z,1256
2017-04-22T09:42:27.980Z,1044
2017-04-22T09:43:37.881Z,932
2017-04-22T09:44:48.698Z,892
2017-04-22T09:45:59.032Z,768
2017-04-22T09:47:09.036Z,676
2017-04-22T09:48:18.081Z,784
2017-04-22T09:49:28.017Z,832
2017-04-22T09:50:38.102Z,876
2017-04-22T09:51:48.019Z,876
2017-04-22T09:52:58.234Z,816
2017-04-22T09:54:08.151Z,872
2017-04-22T09:55:18.388Z,860
2017-04-22T09:56:28.848Z,828
2017-04-22T09:57:38.786Z,808
2017-04-22T09:58:48.744Z,776
2017-04-22T09:59:59.000Z,740
2017-04-22T10:01:08.932Z,728
2017-04-22T10:02:18.376Z,792
2017-04-22T10:03:28.615Z,936
2017-04-22T10:04:38.910Z,1096
2017-04-22T10:05:48.521Z,1124
2017-04-22T10:06:58.513Z,1164
2017-04-22T10:08:08.686Z,1428
2017-04-22T10:09:18.320Z,1800
2017-04-22T10:10:28.572Z,2096
2017-04-22T10:11:39.162Z,2588
2017-04-22T10:12:49.398Z,3104
2017-04-22T10:13:59.426Z,3192
2017-04-22T10:15:09.793Z,3176
2017-04-22T10:16:20.564Z,3456
2017-04-22T10:17:30.477Z,3288
2017-04-22T10:18:40.732Z,3008
2017-04-22T10:19:50.806Z,3128
2017-04-22T10:21:00.718Z,3612
2017-04-22T10:22:10.340Z,3696
2017-04-22T10:23:19.631Z,4232
2017-04-22T10:24:29.853Z,4040
2017-04-22T10:25:39.879Z,4152
2017-04-22T10:26:49.835Z,4096
2017-04-22T10:27:59.457Z,3876
2017-04-22T10:29:09.698Z,3684
2017-04-22T10:30:19.636Z,3204
2017-04-22T10:31:30.113Z,2272
2017-04-22T10:32:40.203Z,1780
2017-04-22T10:33:50.121Z,1884
2017-04-22T10:35:00.086Z,2116
2017-04-22T10:36:10.354Z,2532
2017-04-22T10:37:20.526Z,3052
2017-04-22T10:38:30.438Z,3948
2017-04-22T10:39:40.365Z,3748
2017-04-22T10:40:50.579Z,3240
2017-04-22T10:42:00.492Z,2952
2017-04-22T10:43:10.770Z,2312
2017-04-22T10:44:20.381Z,1984
2017-04-22T10:45:30.298Z,1736
2017-04-22T10:46:40.504Z,1312
2017-04-22T10:47:49.792Z,896
2017-04-22T10:48:59.746Z,724
2017-04-22T10:50:09.653Z,700
2017-04-22T10:51:19.038Z,756
2017-04-22T10:52:29.256Z,768
2017-04-22T10:53:38.879Z,728
2017-04-22T10:54:49.166Z,748
2017-04-22T10:55:58.774Z,976
2017-04-22T10:57:08.703Z,1312
2017-04-22T10:58:18.944Z,1448
2017-04-22T10:59:29.186Z,1352
2017-04-22T11:00:39.338Z,1268
2017-04-22T11:01:49.848Z,1444
2017-04-22T11:03:00.072Z,2120
2017-04-22T11:04:10.307Z,2248
2017-04-22T11:05:19.908Z,2484
2017-04-22T11:06:29.661Z,2636
2017-04-22T11:07:39.576Z,2832
2017-04-22T11:08:49.477Z,2908
2017-04-22T11:09:59.083Z,3164
2017-04-22T11:11:08.704Z,3080
2017-04-22T11:12:19.156Z,2988
2017-04-22T11:13:28.753Z,3212
2017-04-22T11:14:38.868Z,3356
2017-04-22T11:15:48.786Z,3512
2017-04-22T11:16:59.003Z,3396
2017-04-22T11:18:08.455Z,3288
2017-04-22T11:19:18.672Z,3040
2017-04-22T11:20:28.763Z,2464
2017-04-22T11:21:39.167Z,1884
2017-04-22T11:22:49.397Z,1428
2017-04-22T11:23:59.888Z,1196
2017-04-22T11:25:09.526Z,1156
2017-04-22T11:26:19.433Z,1100
2017-04-22T11:27:28.733Z,1120
2017-04-22T11:28:38.952Z,1112
2017-04-22T11:29:49.521Z,1120
2017-04-22T11:30:59.460Z,1144
2017-04-22T11:32:09.050Z,1172
2017-04-22T11:33:18.980Z,1188
2017-04-22T11:34:29.198Z,1208
2017-04-22T11:35:39.714Z,1328
2017-04-22T11:36:49.317Z,1676
2017-04-22T11:37:59.300Z,2168
2017-04-22T11:39:09.513Z,2828
2017-04-22T11:40:18.812Z,3136
2017-04-22T11:41:29.068Z,2600
2017-04-22T11:42:39.016Z,1968
2017-04-22T11:43:49.231Z,1876
2017-04-22T11:44:59.149Z,1860
2017-04-22T11:46:09.060Z,1380
2017-04-22T11:47:19.130Z,912
2017-04-22T11:48:29.044Z,860
2017-04-22T11:49:38.640Z,880
2017-04-22T11:50:48.865Z,760
2017-04-22T11:51:58.801Z,704
2017-04-22T11:53:08.750Z,736
2017-04-22T11:54:19.172Z,960
2017-04-22T11:55:28.806Z,1328
2017-04-22T11:56:38.721Z,1548
2017-04-22T11:57:48.958Z,1788
2017-04-22T11:58:59.486Z,2036
2017-04-22T12:00:09.734Z,2168
2017-04-22T12:01:19.963Z,2140
2017-04-22T12:02:29.871Z,1700
2017-04-22T12:03:39.785Z,1488
2017-04-22T12:04:50.162Z,1176
2017-04-22T12:06:00.390Z,1140
2017-04-22T12:07:09.709Z,1152
2017-04-22T12:08:19.320Z,1180
2017-04-22T12:09:29.562Z,1244
2017-04-22T12:10:39.942Z,1396
2017-04-22T12:11:49.918Z,1948
2017-04-22T12:13:00.133Z,2524
2017-04-22T12:14:10.356Z,2352
2017-04-22T12:15:20.963Z,2844
2017-04-22T12:16:31.122Z,2760
2017-04-22T12:17:41.343Z,2532
2017-04-22T12:18:51.281Z,2088
2017-04-22T12:20:01.195Z,1840
2017-04-22T12:21:10.493Z,1680
2017-04-22T12:22:21.199Z,1876
2017-04-22T12:23:31.121Z,2324
2017-04-22T12:24:41.056Z,2856
2017-04-22T12:25:50.989Z,2536
2017-04-22T12:27:01.227Z,2100
2017-04-22T12:28:11.109Z,2032
2017-04-22T12:29:20.840Z,2140
2017-04-22T12:30:31.107Z,2180
2017-04-22T12:31:40.735Z,2156
2017-04-22T12:32:50.663Z,1920
2017-04-22T12:34:01.034Z,1460
2017-04-22T12:35:10.643Z,1408
2017-04-22T12:36:19.965Z,1880
2017-04-22T12:37:29.880Z,2184
2017-04-22T12:38:39.495Z,1808
2017-04-22T12:39:49.585Z,1288
2017-04-22T12:40:59.503Z,1036
2017-04-22T12:42:09.732Z,1008
2017-04-22T12:43:19.987Z,1184
2017-04-22T12:44:30.248Z,1664
2017-04-22T12:45:40.855Z,1852
2017-04-22T12:46:50.463Z,1864
2017-04-22T12:48:00.712Z,1652
2017-04-22T12:49:11.000Z,1440
2017-04-22T12:50:20.654Z,1480
2017-04-22T12:51:30.864Z,1520
2017-04-22T12:52:40.782Z,1656
2017-04-22T12:53:50.694Z,1876
2017-04-22T12:55:00.965Z,2132
2017-04-22T12:56:10.660Z,2516
2017-04-22T12:57:20.843Z,2652
2017-04-22T12:58:30.518Z,2688
2017-04-22T12:59:40.477Z,2824
2017-04-22T13:00:50.732Z,2996
2017-04-22T13:02:00.712Z,3024
2017-04-22T13:03:10.623Z,3136
2017-04-22T13:04:20.933Z,3112
2017-04-22T13:05:31.010Z,3004
2017-04-22T13:06:40.369Z,2972
2017-04-22T13:07:50.699Z,3060
2017-04-22T13:09:00.856Z,2856
2017-04-22T13:10:10.869Z,2648
2017-04-22T13:11:20.892Z,2520
2017-04-22T13:12:31.604Z,2452
2017-04-22T13:13:41.708Z,2276
2017-04-22T13:14:52.339Z,2192
2017-04-22T13:16:02.346Z,2436
2017-04-22T13:17:11.998Z,2276
2017-04-22T13:18:22.292Z,2160
2017-04-22T13:19:32.575Z,2248
2017-04-22T13:20:42.763Z,2144
2017-04-22T13:21:53.238Z,1860
2017-04-22T13:23:03.519Z,1652
2017-04-22T13:24:14.268Z,1500
2017-04-22T13:25:23.921Z,1284
2017-04-22T13:26:34.096Z,1208
2017-04-22T13:27:45.098Z,1056
2017-04-22T13:28:55.073Z,1052
2017-04-22T13:30:04.773Z,1048
2017-04-22T13:31:14.436Z,1112
2017-04-22T13:32:24.632Z,1268
2017-04-22T13:33:34.661Z,1344
2017-04-22T13:34:44.744Z,1228
2017-04-22T13:35:54.644Z,1120
2017-04-22T13:37:04.586Z,1152
2017-04-22T13:38:14.859Z,1256
2017-04-22T13:39:24.634Z,1420
2017-04-22T13:40:34.681Z,1572
2017-04-22T13:41:44.920Z,1728
2017-04-22T13:42:54.920Z,1936
2017-04-22T13:44:06.385Z,2096
2017-04-22T13:45:16.096Z,2040
2017-04-22T13:46:26.375Z,1972
2017-04-22T13:47:36.118Z,1860
2017-04-22T13:48:45.768Z,1764
2017-04-22T13:49:56.346Z,1600
2017-04-22T13:51:06.691Z,1656
2017-04-22T13:52:16.506Z,1808
2017-04-22T13:53:26.454Z,2044
2017-04-22T13:54:36.096Z,1996
2017-04-22T13:55:46.433Z,2056
2017-04-22T13:56:56.659Z,2044
2017-04-22T13:58:06.303Z,2048
2017-04-22T13:59:15.918Z,2224
2017-04-22T14:00:26.253Z,2420
2017-04-22T14:01:36.474Z,2424
2017-04-22T14:02:46.501Z,2276
2017-04-22T14:03:56.576Z,2256
2017-04-22T14:05:06.862Z,2152
2017-04-22T14:06:17.248Z,2208
2017-04-22T14:07:27.402Z,2260
2017-04-22T14:08:37.539Z,2360
2017-04-22T14:09:47.889Z,2272
2017-04-22T14:10:57.618Z,2336
2017-04-22T14:12:07.265Z,2280
2017-04-22T14:13:17.637Z,2260
2017-04-22T14:14:27.736Z,2284
2017-04-22T14:15:37.989Z,2284
2017-04-22T14:16:48.205Z,2196
2017-04-22T14:17:58.496Z,2064
2017-04-22T14:19:08.822Z,2140
2017-04-22T14:20:18.766Z,2040
2017-04-22T14:21:28.736Z,1956
2017-04-22T14:22:38.399Z,2052
2017-04-22T14:23:48.089Z,2144
2017-04-22T14:24:57.923Z,2060
2017-04-22T14:26:07.967Z,2016
2017-04-22T14:27:17.615Z,1896
2017-04-22T14:28:27.596Z,1800
2017-04-22T14:29:36.913Z,1880
2017-04-22T14:30:47.013Z,1840
2017-04-22T14:31:56.954Z,1748
2017-04-22T14:33:07.258Z,1840
2017-04-22T14:34:16.873Z,1932
2017-04-22T14:35:27.117Z,1988
2017-04-22T14:36:36.885Z,1928
2017-04-22T14:37:47.184Z,1716
2017-04-22T14:38:57.548Z,1536
2017-04-22T14:40:07.469Z,1544
2017-04-22T14:41:18.007Z,1700
2017-04-22T14:42:28.762Z,1772
2017-04-22T14:43:38.491Z,1720
2017-04-22T14:44:48.747Z,1572
2017-04-22T14:45:58.384Z,1524
2017-04-22T14:47:08.148Z,1500
2017-04-22T14:48:17.951Z,1492
2017-04-22T14:49:28.142Z,1524
2017-04-22T14:50:38.230Z,1732
2017-04-22T14:51:48.629Z,1932
2017-04-22T14:52:58.637Z,2096
2017-04-22T14:54:09.002Z,2048
2017-04-22T14:55:19.367Z,2132
2017-04-22T14:56:29.645Z,2340
2017-04-22T14:57:39.611Z,2296
2017-04-22T14:58:49.723Z,2096
2017-04-22T15:00:00.046Z,2056
2017-04-22T15:01:09.879Z,1728
2017-04-22T15:02:20.200Z,1520
2017-04-22T15:03:30.575Z,1464
2017-04-22T15:04:41.177Z,1624
2017-04-22T15:05:52.528Z,1788
2017-04-22T15:07:02.848Z,1844
2017-04-22T15:08:13.197Z,1804
2017-04-22T15:09:23.099Z,1860
2017-04-22T15:10:33.500Z,1840
2017-04-22T15:11:43.423Z,1824
2017-04-22T15:12:54.009Z,1788
2017-04-22T15:14:04.278Z,1756
2017-04-22T15:15:14.693Z,1668
2017-04-22T15:16:25.468Z,1524
2017-04-22T15:17:36.366Z,1532
2017-04-22T15:18:47.027Z,1484
2017-04-22T15:19:57.316Z,1324
2017-04-22T15:21:07.208Z,1088
2017-04-22T15:22:17.489Z,896
2017-04-22T15:23:28.277Z,744
2017-04-22T15:24:39.389Z,672
2017-04-22T15:25:56.537Z,672
2017-04-22T15:27:08.223Z,728
2017-04-22T15:28:19.105Z,776
2017-04-22T15:29:30.368Z,944
2017-04-22T15:30:40.795Z,1052
2017-04-22T15:31:50.830Z,1188
2017-04-22T15:33:01.540Z,1124
2017-04-22T15:34:12.012Z,1032
2017-04-22T15:35:22.259Z,1028
2017-04-22T15:36:32.921Z,1052
2017-04-22T15:37:44.078Z,996
2017-04-22T15:38:54.001Z,920
2017-04-22T15:40:04.784Z,972
2017-04-22T15:41:15.762Z,1028
2017-04-22T15:42:27.145Z,1080
2017-04-22T15:43:37.811Z,1108
2017-04-22T15:44:48.241Z,1228
2017-04-22T15:45:58.876Z,1316
2017-04-22T15:47:09.108Z,1452
2017-04-22T15:48:19.664Z,1492
2017-04-22T15:49:30.553Z,1584
2017-04-22T15:50:41.193Z,1664
2017-04-22T15:51:52.234Z,1664
2017-04-22T15:53:03.327Z,1688
2017-04-22T15:54:14.194Z,1672
2017-04-22T15:55:24.910Z,1660
2017-04-22T15:56:35.287Z,1628
2017-04-22T15:57:46.277Z,1624
2017-04-22T15:58:56.675Z,1600
2017-04-22T16:00:07.574Z,1592
2017-04-22T16:01:18.211Z,1572
2017-04-22T16:02:29.382Z,1584
2017-04-22T16:03:39.831Z,1512
2017-04-22T16:04:50.196Z,1412
2017-04-22T16:06:01.437Z,1252
2017-04-22T16:07:11.882Z,1156
2017-04-22T16:08:22.456Z,1164
2017-04-22T16:09:33.112Z,1228
2017-04-22T16:10:43.059Z,1284